Harrington Park, New Jersey
Current Conditions -  °F | °C
As of 1:08 PM on Thursday 27 Nov 2014 (Local Time) from KTEB Reporting Station
Light Rain Light Rain  
Wind Chill: 33°   Ceiling: 1800
Heat Index: 37°   Visibility: 5mi
Dew Point: 32°   Wind: 6mph
Humidity: 81%   Direction: 320°NW
Pressure: 29.98"   Gusts: NA
Location:  40.98°N, 73.98°W
Report Text: KTEB 271808Z 32005KT 5SM -RA SCT012 BKN018 OVC035 03/00 A2998 RMK AO2 P0000 $
Loading
Personal Weather Stations






























Interactive Weather Map New forecast layout! Learn more

10-Day Weather Forecast

Advertisements
Track Severe Weather on mobile